• Join FlightAware (Why Join?)
  • Login
  • US Flag 
05:54AM EDT


 

Airport Tracker/Info


-or-


 

Live Flight TrackerFlight Track Log ✈ ACA472 ✈ 14-May-2013 ✈ CYYZ - CYOW

Flight Track Log - Related Links

Times and Time Zones

All times are in EDT time to prevent confusion due to time zone crossing. See the ACA472 flight status page for this flight to view local times or setup timezone preferences in your user account.

Time Position Orientation Groundspeed Altitude Reporting Facility
EDT Latitude Longitude Course Direction KTS MPH feet Rate Location/Type
12:44AM 43.6833 -79.6167 77° East 40 46 600  Level Toronto Center
12:45AM 43.6500 -79.6500 216° Southwest 150 173 2,800 2,220 Climbing Toronto Center
12:46AM 43.6167 -79.7333 241° Southwest 200 230 5,100 2,160 Climbing Toronto Center
12:47AM 43.5500 -79.7167 170° South 290 334 7,200 2,640 Climbing Toronto Center
12:48AM 43.5667 -79.6167 77° East 290 334 10,400 2,400 Climbing Toronto Center
12:49AM 43.6000 -79.5000 68° East 340 391 12,000 2,280 Climbing Toronto Center
12:50AM 43.7442 -78.9142 83° East  Level FlightAware Approximate
12:50AM 43.6333 -79.3833 68° East 350 403 15,000  Level Toronto Center
12:51AM 43.7638 -78.7674 77° East  Level FlightAware Approximate
12:51AM 43.6833 -79.2667 59° Northeast 350 403 17,200  Level Toronto Center
12:52AM 43.7167 -79.1333 71° East 360 414 19,500 2,460 Climbing Toronto Center
12:53AM 43.7500 -78.9833 73° East 360 414 22,200 1,740 Climbing Toronto Center
12:54AM 43.8000 -78.8667 59° Northeast 350 403 23,000 360 Climbing Toronto Center
12:55AM 43.8333 -78.7500 68° East 350 403 23,000  Level Toronto Center
12:56AM 43.8667 -78.6167 71° East 350 403 23,000  Level Toronto Center
12:57AM 43.9000 -78.5000 68° East 350 403 23,000  Level Toronto Center
12:58AM 43.9333 -78.3833 68° East 350 403 23,000  Level Toronto Center
12:59AM 43.9667 -78.2500 71° East 350 403 23,000  Level Toronto Center
01:00AM 44.0000 -78.1333 68° East 340 391 23,000  Level Toronto Center
01:01AM 44.0333 -78.0167 68° East 340 391 23,000  Level Toronto Center
01:02AM 44.0833 -77.9000 59° Northeast 340 391 23,000  Level Toronto Center
01:03AM 44.1167 -77.7667 71° East 330 380 23,000  Level Toronto Center
01:04AM 44.1667 -77.6500 59° Northeast 330 380 23,000  Level Toronto Center
01:05AM 44.2167 -77.5667 50° Northeast 330 380 23,000  Level Toronto Center
01:06AM 44.2833 -77.4500 51° Northeast 330 380 23,000  Level Toronto Center
01:07AM 44.3167 -77.3500 65° Northeast 330 380 23,000  Level Toronto Center
01:08AM 44.3667 -77.2333 59° Northeast 330 380 23,000 -120 Level Toronto Center
01:09AM 44.4167 -77.1833 36° Northeast 330 380 22,800 -660 Descending Montreal Center
01:10AM 44.4667 -77.0667 59° Northeast 320 368 21,900 -1,020 Descending Montreal Center
01:11AM 44.5167 -76.9500 59° Northeast 320 368 20,800 -1,020 Descending Montreal Center
01:12AM 44.5500 -76.8667 61° Northeast 330 380 19,900 -960 Descending Montreal Center
01:13AM 44.6000 -76.7500 59° Northeast 340 391 18,900 -1,020 Descending Montreal Center
01:14AM 44.6500 -76.6333 59° Northeast 340 391 17,900 -960 Descending Montreal Center
01:15AM 44.7000 -76.5333 55° Northeast 330 380 17,000 -1,020 Descending Montreal Center
01:16AM 44.7500 -76.4167 59° Northeast 330 380 15,900 -1,260 Descending Montreal Center
01:17AM 44.8000 -76.3167 55° Northeast 320 368 14,500 -1,440 Descending Montreal Center
01:18AM 44.8500 -76.2000 59° Northeast 310 357 13,100 -1,380 Descending Montreal Center
01:19AM 44.8833 -76.1167 61° Northeast 300 345 11,800 -1,320 Descending Montreal Center
01:20AM 44.9333 -76.0167 55° Northeast 300 345 10,500 -1,380 Descending Montreal Center
01:21AM 44.9833 -75.9167 55° Northeast 290 334 9,100 -1,320 Descending Montreal Center
01:22AM 45.0167 -75.8333 60° Northeast 280 322 7,900 -1,200 Descending Montreal Center
01:23AM 45.0500 -75.7333 65° Northeast 260 299 6,700 -1,140 Descending Montreal Center
01:24AM 45.0833 -75.6667 55° Northeast 230 265 5,700 -1,020 Descending Montreal Center
01:25AM 45.1167 -75.5833 60° Northeast 220 253 4,700 -1,020 Descending Montreal Center
01:26AM 45.1500 -75.5167 55° Northeast 210 242 3,700 -900 Descending Montreal Center
01:27AM 45.2000 -75.4667 35° Northeast 210 242 3,000 -600 Descending Montreal Center
01:28AM 45.2333 -75.5333 305° West 180 207 2,500 -780 Descending Montreal Center
01:30AM 45.2833 -75.6333 305° West 140 161 700 -720 Descending Montreal Center
01:31AM 45.3000 -75.6667 305° West 90 104 400 -240 Descending Montreal Center
01:32AM 45.3167 -75.6833 325° Northwest 20 23 300 -120 Descending Montreal Center